SWN3404 EKCH-LTFM
Flight info
| Callsign | SWN3404 |
|---|---|
| Flight time | N/A |
| Altitude | 36000 |
| Route | SIMEG Z493 XELOL DCT INDIG DCT LENOV DCT DUFES DCT KENIN DCT RUTUV DCT BUVAK DCT RIXEN |
| Aircraft | B738/M-SDE2E3FGHIRWXY/LB1 |
Departure
| Time | 2026-04-24 06:21 |
|---|---|
| Airport | Copenhagen Kastrup Airport (EKCH) |
Arrival
| Time | N/A |
|---|---|
| Airport | İstanbul Airport (LTFM) |
| Time | Latitude | Longitude | Altitude | Speed | Heading |
|---|---|---|---|---|---|
| 2026-04-24 05:55 | 55.61967 | 12.66810 | 23 ft | 0 kts | 348° |
| 2026-04-24 06:09 | 55.61962 | 12.66812 | 23 ft | 4 kts | 348° |
| 2026-04-24 06:09 | 55.61936 | 12.66823 | 25 ft | 4 kts | 341° |
| 2026-04-24 06:09 | 55.61911 | 12.66841 | 25 ft | 4 kts | 329° |
| 2026-04-24 06:10 | 55.61892 | 12.66870 | 24 ft | 4 kts | 290° |
| 2026-04-24 06:10 | 55.61890 | 12.66890 | 23 ft | 1 kts | 259° |
| 2026-04-24 06:12 | 55.61890 | 12.66889 | 23 ft | 1 kts | 259° |
| 2026-04-24 06:12 | 55.61884 | 12.66836 | 24 ft | 8 kts | 259° |
| 2026-04-24 06:12 | 55.61871 | 12.66716 | 23 ft | 11 kts | 259° |
| 2026-04-24 06:13 | 55.61854 | 12.66565 | 25 ft | 14 kts | 259° |
| 2026-04-24 06:13 | 55.61863 | 12.66399 | 26 ft | 15 kts | 316° |
| 2026-04-24 06:13 | 55.61963 | 12.66328 | 25 ft | 17 kts | 341° |
| 2026-04-24 06:13 | 55.62079 | 12.66259 | 24 ft | 19 kts | 341° |
| 2026-04-24 06:14 | 55.62209 | 12.66170 | 22 ft | 21 kts | 337° |
| 2026-04-24 06:14 | 55.62312 | 12.66070 | 23 ft | 16 kts | 303° |
| 2026-04-24 06:14 | 55.62302 | 12.65872 | 23 ft | 17 kts | 266° |
| 2026-04-24 06:14 | 55.62299 | 12.65650 | 23 ft | 19 kts | 268° |
| 2026-04-24 06:15 | 55.62296 | 12.65411 | 23 ft | 19 kts | 269° |
| 2026-04-24 06:15 | 55.62273 | 12.65217 | 24 ft | 15 kts | 213° |
| 2026-04-24 06:15 | 55.62170 | 12.65133 | 23 ft | 17 kts | 214° |
| 2026-04-24 06:15 | 55.62062 | 12.65008 | 26 ft | 19 kts | 213° |
| 2026-04-24 06:16 | 55.62025 | 12.64965 | 24 ft | 20 kts | 213° |
| 2026-04-24 06:17 | 55.61360 | 12.64201 | 25 ft | 24 kts | 212° |
| 2026-04-24 06:17 | 55.61228 | 12.64050 | 24 ft | 23 kts | 213° |
| 2026-04-24 06:17 | 55.61087 | 12.63888 | 25 ft | 25 kts | 213° |
| 2026-04-24 06:17 | 55.60944 | 12.63723 | 23 ft | 24 kts | 213° |
| 2026-04-24 06:18 | 55.60800 | 12.63559 | 25 ft | 25 kts | 212° |
| 2026-04-24 06:18 | 55.60667 | 12.63403 | 23 ft | 23 kts | 217° |
| 2026-04-24 06:18 | 55.60560 | 12.63245 | 23 ft | 17 kts | 216° |
| 2026-04-24 06:18 | 55.60475 | 12.63258 | 23 ft | 13 kts | 136° |
| 2026-04-24 06:19 | 55.60436 | 12.63332 | 25 ft | 8 kts | 131° |
| 2026-04-24 06:19 | 55.60404 | 12.63430 | 24 ft | 10 kts | 87° |
| 2026-04-24 06:19 | 55.60436 | 12.63496 | 23 ft | 0 kts | 40° |
| 2026-04-24 06:20 | 55.60463 | 12.63538 | 24 ft | 30 kts | 40° |
| 2026-04-24 06:20 | 55.60845 | 12.64130 | 24 ft | 116 kts | 41° |
| 2026-04-24 06:20 | 55.61647 | 12.65329 | 116 ft | 178 kts | 38° |
| 2026-04-24 06:21 | 55.62605 | 12.66804 | 1043 ft | 180 kts | 38° |
| 2026-04-24 06:21 | 55.63531 | 12.68267 | 2190 ft | 183 kts | 37° |
| 2026-04-24 06:21 | 55.64558 | 12.69859 | 2605 ft | 209 kts | 37° |
| 2026-04-24 06:21 | 55.65722 | 12.71632 | 2961 ft | 228 kts | 36° |
| 2026-04-24 06:22 | 55.66995 | 12.73536 | 3345 ft | 249 kts | 36° |
| 2026-04-24 06:22 | 55.68327 | 12.75525 | 4120 ft | 255 kts | 36° |
| 2026-04-24 06:22 | 55.69657 | 12.77625 | 5084 ft | 259 kts | 45° |
| 2026-04-24 06:22 | 55.70489 | 12.80517 | 5971 ft | 272 kts | 73° |
| 2026-04-24 06:23 | 55.70450 | 12.83933 | 6838 ft | 286 kts | 103° |
| 2026-04-24 06:23 | 55.69422 | 12.86997 | 7615 ft | 299 kts | 136° |
| 2026-04-24 06:23 | 55.67602 | 12.88823 | 8411 ft | 305 kts | 161° |
| 2026-04-24 06:23 | 55.65564 | 12.90006 | 9205 ft | 311 kts | 162° |
| 2026-04-24 06:24 | 55.63514 | 12.91198 | 9969 ft | 316 kts | 163° |
| 2026-04-24 06:24 | 55.61312 | 12.91709 | 10480 ft | 328 kts | 186° |
| 2026-04-24 06:24 | 55.59082 | 12.90523 | 10672 ft | 345 kts | 214° |
| 2026-04-24 06:24 | 55.57249 | 12.87768 | 11173 ft | 349 kts | 230° |
| 2026-04-24 06:25 | 55.55573 | 12.84625 | 11895 ft | 352 kts | 231° |
| 2026-04-24 06:25 | 55.53883 | 12.81466 | 12688 ft | 355 kts | 230° |
| 2026-04-24 06:25 | 55.51897 | 12.78785 | 13406 ft | 368 kts | 208° |
| 2026-04-24 06:25 | 55.49389 | 12.77660 | 14105 ft | 380 kts | 184° |
| 2026-04-24 06:26 | 55.47634 | 12.77817 | 14558 ft | 383 kts | 175° |
| 2026-04-24 06:26 | 55.44116 | 12.78684 | 15459 ft | 387 kts | 173° |
| 2026-04-24 06:26 | 55.41435 | 12.79341 | 16115 ft | 391 kts | 174° |
| 2026-04-24 06:26 | 55.38728 | 12.79963 | 16776 ft | 394 kts | 173° |
| 2026-04-24 06:27 | 55.36924 | 12.80773 | 17193 ft | 399 kts | 159° |
| 2026-04-24 06:27 | 55.34577 | 12.83273 | 17839 ft | 403 kts | 137° |
| 2026-04-24 06:27 | 55.32815 | 12.87073 | 18476 ft | 403 kts | 117° |
| 2026-04-24 06:27 | 55.31831 | 12.91644 | 19022 ft | 401 kts | 100° |
| 2026-04-24 06:28 | 55.31252 | 12.96471 | 19582 ft | 404 kts | 98° |
| 2026-04-24 06:28 | 55.30722 | 13.01341 | 20099 ft | 408 kts | 98° |
| 2026-04-24 06:28 | 55.30190 | 13.06258 | 20636 ft | 411 kts | 98° |
| 2026-04-24 06:28 | 55.29638 | 13.11212 | 21181 ft | 415 kts | 98° |
| 2026-04-24 06:29 | 55.29067 | 13.16183 | 21715 ft | 418 kts | 99° |
| 2026-04-24 06:29 | 55.28478 | 13.21198 | 22236 ft | 421 kts | 99° |
| 2026-04-24 06:29 | 55.27875 | 13.26259 | 22751 ft | 425 kts | 99° |
| 2026-04-24 06:29 | 55.27272 | 13.31287 | 23252 ft | 428 kts | 99° |
| 2026-04-24 06:30 | 55.26656 | 13.36410 | 23735 ft | 431 kts | 99° |
| 2026-04-24 06:30 | 55.26032 | 13.41587 | 24152 ft | 434 kts | 99° |
| 2026-04-24 06:30 | 55.25388 | 13.46784 | 24571 ft | 438 kts | 103° |
| 2026-04-24 06:30 | 55.24209 | 13.51719 | 24945 ft | 444 kts | 122° |
| 2026-04-24 06:31 | 55.22297 | 13.55984 | 25382 ft | 445 kts | 131° |
| 2026-04-24 06:31 | 55.20244 | 13.60067 | 25802 ft | 448 kts | 132° |
| 2026-04-24 06:31 | 55.18185 | 13.64088 | 26180 ft | 451 kts | 132° |
| 2026-04-24 06:31 | 55.16089 | 13.68190 | 26561 ft | 453 kts | 132° |
| 2026-04-24 06:32 | 55.13988 | 13.72338 | 26945 ft | 456 kts | 131° |
| 2026-04-24 06:32 | 55.11891 | 13.76511 | 27328 ft | 458 kts | 131° |
| 2026-04-24 06:32 | 55.09785 | 13.80723 | 27700 ft | 460 kts | 131° |
| 2026-04-24 06:32 | 55.07671 | 13.84954 | 28068 ft | 463 kts | 131° |
| 2026-04-24 06:33 | 55.05553 | 13.89192 | 28433 ft | 465 kts | 131° |
| 2026-04-24 06:33 | 55.03415 | 13.93460 | 28775 ft | 467 kts | 132° |
| 2026-04-24 06:33 | 55.01262 | 13.97748 | 29113 ft | 470 kts | 132° |
| 2026-04-24 06:33 | 54.99130 | 14.01988 | 29441 ft | 472 kts | 132° |
| 2026-04-24 06:34 | 54.96953 | 14.06308 | 29767 ft | 474 kts | 132° |
| 2026-04-24 06:34 | 54.94763 | 14.10646 | 30081 ft | 477 kts | 132° |
| 2026-04-24 06:34 | 54.92545 | 14.14979 | 30349 ft | 478 kts | 135° |
| 2026-04-24 06:34 | 54.90127 | 14.18847 | 30554 ft | 480 kts | 144° |
| 2026-04-24 06:35 | 54.87399 | 14.22190 | 30782 ft | 481 kts | 148° |
| 2026-04-24 06:35 | 54.84604 | 14.25433 | 31009 ft | 483 kts | 148° |
| 2026-04-24 06:35 | 54.81805 | 14.28705 | 31218 ft | 486 kts | 147° |
| 2026-04-24 06:35 | 54.79014 | 14.32042 | 31430 ft | 489 kts | 147° |
| 2026-04-24 06:36 | 54.76215 | 14.35418 | 31694 ft | 489 kts | 147° |
| 2026-04-24 06:36 | 54.73383 | 14.38706 | 32009 ft | 489 kts | 148° |
| 2026-04-24 06:36 | 54.70527 | 14.41921 | 32323 ft | 489 kts | 149° |
| 2026-04-24 06:36 | 54.67695 | 14.45073 | 32588 ft | 489 kts | 149° |
| 2026-04-24 06:37 | 54.64834 | 14.48255 | 32845 ft | 490 kts | 149° |
| 2026-04-24 06:37 | 54.61958 | 14.51464 | 33122 ft | 491 kts | 148° |
| 2026-04-24 06:37 | 54.59096 | 14.54665 | 33403 ft | 491 kts | 148° |
| 2026-04-24 06:37 | 54.56232 | 14.57876 | 33690 ft | 491 kts | 148° |
| 2026-04-24 06:38 | 54.53359 | 14.61094 | 33956 ft | 491 kts | 148° |
| 2026-04-24 06:38 | 54.50492 | 14.64304 | 34196 ft | 491 kts | 148° |
| 2026-04-24 06:38 | 54.47618 | 14.67514 | 34442 ft | 491 kts | 148° |
| 2026-04-24 06:38 | 54.44756 | 14.70706 | 34706 ft | 490 kts | 148° |
| 2026-04-24 06:39 | 54.41893 | 14.73892 | 34949 ft | 490 kts | 148° |
| 2026-04-24 06:39 | 54.39058 | 14.77042 | 35170 ft | 490 kts | 148° |
| 2026-04-24 06:39 | 54.36195 | 14.80217 | 35402 ft | 490 kts | 148° |
| 2026-04-24 06:39 | 54.33331 | 14.83389 | 35651 ft | 489 kts | 148° |
| 2026-04-24 06:40 | 54.30476 | 14.86546 | 35866 ft | 489 kts | 148° |
| 2026-04-24 06:40 | 54.27629 | 14.89746 | 36092 ft | 489 kts | 144° |
| 2026-04-24 06:40 | 54.24970 | 14.93376 | 36291 ft | 489 kts | 140° |
| 2026-04-24 06:40 | 54.22414 | 14.97101 | 36508 ft | 489 kts | 139° |
| 2026-04-24 06:41 | 54.19847 | 15.00898 | 36737 ft | 488 kts | 139° |
| 2026-04-24 06:41 | 54.17276 | 15.04707 | 36939 ft | 488 kts | 139° |
| 2026-04-24 06:41 | 54.14703 | 15.08498 | 37085 ft | 489 kts | 139° |
| 2026-04-24 06:42 | 54.09513 | 15.16065 | 37082 ft | 490 kts | 139° |
| 2026-04-24 06:42 | 54.04327 | 15.23551 | 37069 ft | 487 kts | 139° |
| 2026-04-24 06:43 | 53.99164 | 15.30964 | 37072 ft | 484 kts | 139° |
| 2026-04-24 06:43 | 53.94060 | 15.38272 | 37077 ft | 482 kts | 139° |
| 2026-04-24 06:44 | 53.88927 | 15.45601 | 37077 ft | 481 kts | 139° |
| 2026-04-24 06:44 | 53.83802 | 15.52893 | 37080 ft | 482 kts | 139° |
| 2026-04-24 06:45 | 53.78644 | 15.60210 | 37082 ft | 484 kts | 139° |
| 2026-04-24 06:45 | 53.73473 | 15.67520 | 37081 ft | 486 kts | 139° |
| 2026-04-24 06:46 | 53.68309 | 15.74796 | 37081 ft | 488 kts | 139° |
| 2026-04-24 06:46 | 53.63071 | 15.82152 | 37081 ft | 489 kts | 139° |
| 2026-04-24 06:47 | 53.57827 | 15.89491 | 37076 ft | 491 kts | 139° |
| 2026-04-24 06:47 | 53.52561 | 15.96836 | 37074 ft | 491 kts | 139° |
| 2026-04-24 06:48 | 53.47322 | 16.04120 | 37074 ft | 491 kts | 139° |
| 2026-04-24 06:48 | 53.42053 | 16.11422 | 37074 ft | 491 kts | 139° |
| 2026-04-24 06:49 | 53.36785 | 16.18697 | 37068 ft | 489 kts | 139° |
| 2026-04-24 06:49 | 53.31562 | 16.25886 | 37072 ft | 488 kts | 139° |
| 2026-04-24 06:50 | 53.26313 | 16.33088 | 37069 ft | 487 kts | 139° |
| 2026-04-24 06:50 | 53.21080 | 16.40243 | 37068 ft | 486 kts | 139° |
| 2026-04-24 06:51 | 53.15844 | 16.47382 | 37067 ft | 485 kts | 139° |
| 2026-04-24 06:51 | 53.10650 | 16.54438 | 37065 ft | 484 kts | 139° |
| 2026-04-24 06:52 | 53.05417 | 16.61526 | 37064 ft | 484 kts | 139° |
| 2026-04-24 06:52 | 53.00181 | 16.68593 | 37067 ft | 484 kts | 139° |
| 2026-04-24 06:53 | 52.94973 | 16.75602 | 37062 ft | 485 kts | 139° |
| 2026-04-24 06:53 | 52.89693 | 16.82684 | 37065 ft | 485 kts | 139° |
| 2026-04-24 06:54 | 52.84468 | 16.89669 | 37064 ft | 486 kts | 139° |
| 2026-04-24 06:54 | 52.79192 | 16.96701 | 37062 ft | 487 kts | 139° |
| 2026-04-24 06:55 | 52.73906 | 17.03724 | 37062 ft | 487 kts | 139° |
| 2026-04-24 06:55 | 52.68612 | 17.10734 | 37062 ft | 488 kts | 139° |
| 2026-04-24 06:56 | 52.63307 | 17.17737 | 37058 ft | 489 kts | 139° |
| 2026-04-24 06:56 | 52.58024 | 17.24687 | 37056 ft | 489 kts | 139° |
| 2026-04-24 06:57 | 52.52702 | 17.31667 | 37059 ft | 489 kts | 139° |
| 2026-04-24 06:57 | 52.47388 | 17.38614 | 37059 ft | 488 kts | 139° |
| 2026-04-24 06:58 | 52.42095 | 17.45513 | 37062 ft | 488 kts | 139° |
| 2026-04-24 06:58 | 52.36781 | 17.52416 | 37064 ft | 487 kts | 139° |
| 2026-04-24 06:59 | 52.31461 | 17.59305 | 37062 ft | 486 kts | 139° |
| 2026-04-24 06:59 | 52.26186 | 17.66116 | 37060 ft | 486 kts | 139° |
| 2026-04-24 07:00 | 52.20872 | 17.72954 | 37062 ft | 485 kts | 139° |
| 2026-04-24 07:00 | 52.15562 | 17.79768 | 37061 ft | 485 kts | 139° |
| 2026-04-24 07:01 | 52.10289 | 17.86513 | 37062 ft | 485 kts | 139° |
| 2026-04-24 07:01 | 52.04976 | 17.93290 | 37065 ft | 485 kts | 139° |
| 2026-04-24 07:02 | 51.99665 | 18.00042 | 37062 ft | 485 kts | 139° |
| 2026-04-24 07:02 | 51.94279 | 18.06671 | 37059 ft | 486 kts | 140° |
| 2026-04-24 07:03 | 51.88874 | 18.13157 | 37068 ft | 486 kts | 140° |
| 2026-04-24 07:03 | 51.83423 | 18.19690 | 37071 ft | 487 kts | 140° |
| 2026-04-24 07:04 | 51.77977 | 18.26226 | 37055 ft | 488 kts | 140° |
| 2026-04-24 07:04 | 51.72527 | 18.32759 | 37063 ft | 488 kts | 140° |
| 2026-04-24 07:05 | 51.67108 | 18.39238 | 37067 ft | 488 kts | 140° |
| 2026-04-24 07:05 | 51.61642 | 18.45752 | 37060 ft | 488 kts | 140° |
| 2026-04-24 07:06 | 51.56171 | 18.52251 | 37062 ft | 489 kts | 140° |
| 2026-04-24 07:06 | 51.50696 | 18.58734 | 37066 ft | 488 kts | 140° |
| 2026-04-24 07:07 | 51.45231 | 18.65185 | 37057 ft | 488 kts | 140° |
| 2026-04-24 07:07 | 51.37061 | 18.74794 | 37057 ft | 487 kts | 140° |
| 2026-04-24 07:08 | 51.31599 | 18.81194 | 37059 ft | 486 kts | 140° |
| 2026-04-24 07:08 | 51.26132 | 18.87581 | 37055 ft | 486 kts | 140° |
| 2026-04-24 07:09 | 51.20663 | 18.93949 | 37059 ft | 485 kts | 140° |
| 2026-04-24 07:09 | 51.15239 | 19.00248 | 37056 ft | 485 kts | 140° |
| 2026-04-24 07:10 | 51.09784 | 19.06564 | 37051 ft | 485 kts | 140° |
| 2026-04-24 07:10 | 51.04326 | 19.12863 | 37054 ft | 484 kts | 140° |
| 2026-04-24 07:11 | 50.98863 | 19.19151 | 37056 ft | 484 kts | 140° |
| 2026-04-24 07:11 | 50.93393 | 19.25428 | 37053 ft | 484 kts | 140° |
| 2026-04-24 07:12 | 50.87962 | 19.31641 | 37050 ft | 484 kts | 140° |
| 2026-04-24 07:12 | 50.82500 | 19.37871 | 37053 ft | 484 kts | 140° |
| 2026-04-24 07:13 | 50.77020 | 19.44104 | 37048 ft | 485 kts | 140° |
| 2026-04-24 07:13 | 50.71534 | 19.50325 | 37047 ft | 485 kts | 140° |
| 2026-04-24 07:14 | 50.66078 | 19.56494 | 37043 ft | 485 kts | 140° |
| 2026-04-24 07:14 | 50.60580 | 19.62692 | 37046 ft | 485 kts | 140° |
| 2026-04-24 07:15 | 50.55081 | 19.68873 | 37040 ft | 485 kts | 140° |
| 2026-04-24 07:15 | 50.49609 | 19.75005 | 37034 ft | 485 kts | 140° |
| 2026-04-24 07:16 | 50.44109 | 19.81152 | 37043 ft | 485 kts | 140° |
| 2026-04-24 07:16 | 50.38602 | 19.87287 | 37041 ft | 485 kts | 140° |
| 2026-04-24 07:17 | 50.33096 | 19.93405 | 37049 ft | 484 kts | 140° |
| 2026-04-24 07:17 | 50.27624 | 19.99467 | 37051 ft | 484 kts | 140° |
| 2026-04-24 07:18 | 50.23041 | 20.04531 | 37051 ft | 484 kts | 140° |
| 2026-04-24 07:18 | 50.16612 | 20.11613 | 37051 ft | 483 kts | 140° |
| 2026-04-24 07:19 | 50.12045 | 20.16630 | 37046 ft | 483 kts | 140° |
| 2026-04-24 07:19 | 50.05662 | 20.23623 | 37039 ft | 482 kts | 140° |
| 2026-04-24 07:20 | 50.01063 | 20.28646 | 37027 ft | 482 kts | 140° |
| 2026-04-24 07:20 | 49.95579 | 20.34621 | 37024 ft | 481 kts | 140° |
| 2026-04-24 07:21 | 49.90130 | 20.40541 | 37018 ft | 481 kts | 140° |
| 2026-04-24 07:21 | 49.84641 | 20.46487 | 37020 ft | 481 kts | 140° |
| 2026-04-24 07:22 | 49.79143 | 20.52427 | 37028 ft | 481 kts | 140° |
| 2026-04-24 07:22 | 49.73657 | 20.58337 | 37013 ft | 480 kts | 140° |
| 2026-04-24 07:23 | 49.68165 | 20.64236 | 37019 ft | 480 kts | 140° |
| 2026-04-24 07:23 | 49.62677 | 20.70115 | 37018 ft | 480 kts | 140° |
| 2026-04-24 07:24 | 49.57210 | 20.75956 | 37012 ft | 480 kts | 140° |
| 2026-04-24 07:24 | 49.51700 | 20.81825 | 37025 ft | 480 kts | 140° |
| 2026-04-24 07:25 | 49.46199 | 20.87671 | 37011 ft | 481 kts | 140° |
| 2026-04-24 07:25 | 49.40687 | 20.93513 | 37020 ft | 481 kts | 140° |
| 2026-04-24 07:26 | 49.35205 | 20.99306 | 37017 ft | 481 kts | 140° |
| 2026-04-24 07:26 | 49.29456 | 21.04645 | 37042 ft | 485 kts | 147° |
| 2026-04-24 07:27 | 49.23443 | 21.09426 | 37022 ft | 487 kts | 148° |
| 2026-04-24 07:27 | 49.17432 | 21.14211 | 37013 ft | 486 kts | 147° |
| 2026-04-24 07:28 | 49.11496 | 21.19021 | 37014 ft | 485 kts | 147° |
| 2026-04-24 07:28 | 49.05521 | 21.23878 | 37020 ft | 485 kts | 147° |
| 2026-04-24 07:29 | 48.99557 | 21.28706 | 37018 ft | 485 kts | 147° |
| 2026-04-24 07:29 | 48.93709 | 21.33657 | 37016 ft | 481 kts | 142° |
| 2026-04-24 07:30 | 48.88163 | 21.39385 | 37027 ft | 481 kts | 140° |
| 2026-04-24 07:30 | 48.82670 | 21.45216 | 37016 ft | 482 kts | 140° |
| 2026-04-24 07:31 | 48.77146 | 21.50975 | 37016 ft | 481 kts | 140° |
| 2026-04-24 07:31 | 48.71649 | 21.56628 | 37020 ft | 479 kts | 140° |
| 2026-04-24 07:32 | 48.66129 | 21.62278 | 37017 ft | 479 kts | 140° |
| 2026-04-24 07:32 | 48.60614 | 21.67914 | 37023 ft | 478 kts | 140° |
| 2026-04-24 07:33 | 48.55112 | 21.73523 | 37024 ft | 477 kts | 140° |
| 2026-04-24 07:33 | 48.49601 | 21.79129 | 37026 ft | 477 kts | 141° |
| 2026-04-24 07:34 | 48.44124 | 21.84685 | 37027 ft | 478 kts | 141° |
| 2026-04-24 07:34 | 48.38597 | 21.90278 | 37027 ft | 478 kts | 141° |
| 2026-04-24 07:35 | 48.33163 | 21.96054 | 37029 ft | 476 kts | 137° |
| 2026-04-24 07:35 | 48.27932 | 22.02178 | 37033 ft | 476 kts | 136° |
| 2026-04-24 07:36 | 48.22756 | 22.08294 | 37028 ft | 477 kts | 136° |
| 2026-04-24 07:36 | 48.17509 | 22.14421 | 37029 ft | 478 kts | 136° |
| 2026-04-24 07:37 | 48.12241 | 22.20517 | 37031 ft | 479 kts | 136° |
| 2026-04-24 07:37 | 48.06963 | 22.26597 | 37030 ft | 479 kts | 137° |
| 2026-04-24 07:38 | 48.01666 | 22.32683 | 37034 ft | 479 kts | 137° |
| 2026-04-24 07:38 | 47.96411 | 22.38707 | 37032 ft | 479 kts | 137° |
| 2026-04-24 07:39 | 47.91125 | 22.44751 | 37027 ft | 478 kts | 137° |
| 2026-04-24 07:39 | 47.85849 | 22.50768 | 37032 ft | 478 kts | 137° |
| 2026-04-24 07:40 | 47.80561 | 22.56784 | 37026 ft | 477 kts | 137° |
| 2026-04-24 07:40 | 47.75283 | 22.62772 | 37033 ft | 477 kts | 137° |
| 2026-04-24 07:41 | 47.70042 | 22.68702 | 37017 ft | 476 kts | 137° |
| 2026-04-24 07:41 | 47.64765 | 22.74659 | 37018 ft | 476 kts | 137° |
| 2026-04-24 07:42 | 47.59483 | 22.80605 | 37015 ft | 476 kts | 137° |
| 2026-04-24 07:42 | 47.54207 | 22.86529 | 37019 ft | 476 kts | 137° |
| 2026-04-24 07:43 | 47.48950 | 22.92416 | 37012 ft | 476 kts | 137° |
| 2026-04-24 07:43 | 47.43663 | 22.98322 | 37034 ft | 476 kts | 137° |
| 2026-04-24 07:44 | 47.38370 | 23.04220 | 37013 ft | 476 kts | 137° |
| 2026-04-24 07:44 | 47.33073 | 23.10106 | 37010 ft | 477 kts | 137° |
| 2026-04-24 07:45 | 47.27761 | 23.15993 | 37030 ft | 477 kts | 137° |
| 2026-04-24 07:45 | 47.22458 | 23.21856 | 37027 ft | 477 kts | 137° |
| 2026-04-24 07:46 | 47.17170 | 23.27688 | 37017 ft | 478 kts | 137° |
| 2026-04-24 07:46 | 47.11842 | 23.33548 | 37008 ft | 478 kts | 137° |
| 2026-04-24 07:47 | 47.06511 | 23.39397 | 37007 ft | 478 kts | 137° |
| 2026-04-24 07:47 | 47.01169 | 23.45242 | 36997 ft | 479 kts | 137° |
| 2026-04-24 07:48 | 46.95823 | 23.51077 | 37002 ft | 479 kts | 137° |
| 2026-04-24 07:48 | 46.90495 | 23.56879 | 36996 ft | 480 kts | 137° |
| 2026-04-24 07:49 | 46.85133 | 23.62702 | 36999 ft | 480 kts | 138° |
| 2026-04-24 07:49 | 46.79757 | 23.68525 | 36994 ft | 480 kts | 138° |
| 2026-04-24 07:50 | 46.74391 | 23.74322 | 37002 ft | 480 kts | 138° |
| 2026-04-24 07:50 | 46.69012 | 23.80119 | 36997 ft | 480 kts | 138° |
| 2026-04-24 07:51 | 46.63670 | 23.85861 | 36996 ft | 479 kts | 138° |
| 2026-04-24 07:51 | 46.58297 | 23.91623 | 36997 ft | 479 kts | 138° |
| 2026-04-24 07:52 | 46.52932 | 23.97364 | 36997 ft | 479 kts | 138° |
| 2026-04-24 07:52 | 46.47562 | 24.03095 | 36994 ft | 478 kts | 138° |
| 2026-04-24 07:53 | 46.42191 | 24.08814 | 36991 ft | 478 kts | 138° |
| 2026-04-24 07:53 | 46.36841 | 24.14468 | 36992 ft | 479 kts | 138° |
| 2026-04-24 07:54 | 46.31442 | 24.20115 | 36986 ft | 479 kts | 139° |
| 2026-04-24 07:54 | 46.26036 | 24.25754 | 36991 ft | 479 kts | 139° |
| 2026-04-24 07:55 | 46.20625 | 24.31392 | 36981 ft | 479 kts | 139° |
| 2026-04-24 07:55 | 46.15208 | 24.37027 | 36985 ft | 479 kts | 139° |
| 2026-04-24 07:56 | 46.09793 | 24.42646 | 36981 ft | 479 kts | 139° |
| 2026-04-24 07:56 | 46.04378 | 24.48251 | 36980 ft | 479 kts | 139° |
| 2026-04-24 07:57 | 45.98997 | 24.53807 | 36986 ft | 478 kts | 139° |
| 2026-04-24 07:57 | 45.93585 | 24.59381 | 36981 ft | 478 kts | 139° |
| 2026-04-24 07:58 | 45.88190 | 24.64925 | 36982 ft | 477 kts | 139° |
| 2026-04-24 07:58 | 45.82779 | 24.70472 | 36982 ft | 477 kts | 139° |
| 2026-04-24 07:59 | 45.77376 | 24.75996 | 36976 ft | 477 kts | 139° |
| 2026-04-24 07:59 | 45.71996 | 24.81484 | 36972 ft | 477 kts | 139° |
| 2026-04-24 08:00 | 45.66577 | 24.86998 | 36969 ft | 477 kts | 139° |
| 2026-04-24 08:00 | 45.61164 | 24.92493 | 36964 ft | 478 kts | 139° |
| 2026-04-24 08:01 | 45.55727 | 24.98000 | 36962 ft | 478 kts | 139° |
| 2026-04-24 08:01 | 45.50339 | 25.03442 | 36972 ft | 477 kts | 139° |
| 2026-04-24 08:02 | 45.44918 | 25.08903 | 36962 ft | 476 kts | 139° |
| 2026-04-24 08:02 | 45.39498 | 25.14354 | 36954 ft | 477 kts | 139° |
| 2026-04-24 08:03 | 45.34059 | 25.19810 | 36940 ft | 478 kts | 139° |
| 2026-04-24 08:03 | 45.28648 | 25.25226 | 36947 ft | 479 kts | 140° |
| 2026-04-24 08:04 | 45.23187 | 25.30676 | 36939 ft | 480 kts | 140° |
| 2026-04-24 08:04 | 45.17707 | 25.36133 | 36935 ft | 482 kts | 140° |
| 2026-04-24 08:05 | 45.12216 | 25.41588 | 36923 ft | 482 kts | 140° |
| 2026-04-24 08:05 | 45.06706 | 25.47046 | 36927 ft | 482 kts | 140° |
| 2026-04-24 08:06 | 45.01247 | 25.52442 | 36924 ft | 480 kts | 141° |
| 2026-04-24 08:06 | 44.95773 | 25.57840 | 36925 ft | 478 kts | 141° |
| 2026-04-24 08:07 | 44.90321 | 25.63205 | 36921 ft | 476 kts | 141° |
| 2026-04-24 08:07 | 44.85808 | 25.67635 | 36920 ft | 473 kts | 141° |
| 2026-04-24 08:08 | 44.80412 | 25.72922 | 36927 ft | 471 kts | 141° |
| 2026-04-24 08:09 | 44.72395 | 25.80755 | 36943 ft | 468 kts | 141° |
| 2026-04-24 08:09 | 44.67047 | 25.85965 | 36952 ft | 467 kts | 141° |
| 2026-04-24 08:10 | 44.61710 | 25.91153 | 36962 ft | 466 kts | 142° |
| 2026-04-24 08:10 | 44.56372 | 25.96330 | 36969 ft | 466 kts | 142° |
| 2026-04-24 08:11 | 44.51053 | 26.01476 | 36969 ft | 467 kts | 142° |
| 2026-04-24 08:11 | 44.45675 | 26.06668 | 36970 ft | 468 kts | 142° |
| 2026-04-24 08:12 | 44.40323 | 26.11823 | 36971 ft | 470 kts | 142° |
| 2026-04-24 08:12 | 44.34926 | 26.17009 | 36961 ft | 471 kts | 142° |
| 2026-04-24 08:13 | 44.29524 | 26.22189 | 36957 ft | 471 kts | 142° |
| 2026-04-24 08:13 | 44.24105 | 26.27372 | 36951 ft | 472 kts | 142° |
| 2026-04-24 08:14 | 44.18713 | 26.32518 | 36948 ft | 472 kts | 143° |
| 2026-04-24 08:14 | 44.13300 | 26.37673 | 36950 ft | 471 kts | 143° |
| 2026-04-24 08:15 | 44.07877 | 26.42825 | 36954 ft | 471 kts | 143° |
| 2026-04-24 08:15 | 44.02458 | 26.47962 | 36958 ft | 470 kts | 143° |
| 2026-04-24 08:16 | 43.97048 | 26.53079 | 36957 ft | 470 kts | 143° |
| 2026-04-24 08:16 | 43.91682 | 26.58143 | 36954 ft | 469 kts | 143° |
| 2026-04-24 08:17 | 43.86273 | 26.63237 | 36959 ft | 469 kts | 143° |
| 2026-04-24 08:17 | 43.80849 | 26.68333 | 36961 ft | 470 kts | 143° |
| 2026-04-24 08:18 | 43.75440 | 26.73403 | 36960 ft | 470 kts | 143° |
| 2026-04-24 08:18 | 43.70042 | 26.78452 | 36963 ft | 471 kts | 143° |
| 2026-04-24 08:19 | 43.64604 | 26.83528 | 36965 ft | 471 kts | 143° |
| 2026-04-24 08:19 | 43.59186 | 26.88574 | 36968 ft | 472 kts | 144° |
| 2026-04-24 08:20 | 43.53723 | 26.93650 | 36961 ft | 473 kts | 144° |
| 2026-04-24 08:20 | 43.48256 | 26.98718 | 36965 ft | 474 kts | 144° |
| 2026-04-24 08:21 | 43.42767 | 27.03796 | 36961 ft | 475 kts | 144° |
| 2026-04-24 08:21 | 43.37318 | 27.08825 | 36970 ft | 475 kts | 144° |
| 2026-04-24 08:22 | 43.31823 | 27.13886 | 36963 ft | 474 kts | 144° |
| 2026-04-24 08:22 | 43.26333 | 27.18931 | 36963 ft | 474 kts | 144° |
| 2026-04-24 08:23 | 43.20856 | 27.23953 | 36968 ft | 473 kts | 145° |
| 2026-04-24 08:23 | 43.15394 | 27.28951 | 36966 ft | 472 kts | 145° |
| 2026-04-24 08:24 | 43.09955 | 27.33917 | 36970 ft | 470 kts | 145° |